createdAt,value
2022-12-22T00:00:22.389Z,4.25
2022-12-22T00:03:08.004Z,4.75
2022-12-22T00:05:53.541Z,4.47
2022-12-22T00:08:39.082Z,4.70
2022-12-22T00:11:29.297Z,4.55
2022-12-22T00:14:15.563Z,4.70
2022-12-22T00:17:01.243Z,5.32
2022-12-22T00:19:48.592Z,7.00
2022-12-22T00:22:42.296Z,4.72
2022-12-22T00:25:32.361Z,4.88
2022-12-22T00:28:18.100Z,5.13
2022-12-22T00:31:04.648Z,4.72
2022-12-22T00:33:50.582Z,4.07
2022-12-22T00:39:27.999Z,4.35
2022-12-22T00:42:13.596Z,4.40
2022-12-22T00:44:59.223Z,4.75
2022-12-22T00:47:47.765Z,5.18
2022-12-22T00:50:34.440Z,4.63
2022-12-22T00:53:21.281Z,4.47
2022-12-22T00:56:06.812Z,5.55
2022-12-22T00:58:53.313Z,4.85
2022-12-22T01:01:39.051Z,4.80
2022-12-22T01:07:09.719Z,3.63
2022-12-22T01:09:55.432Z,4.65
2022-12-22T01:12:44.049Z,3.70
2022-12-22T01:15:36.541Z,4.32
2022-12-22T01:18:22.983Z,4.82
2022-12-22T01:21:09.633Z,4.60
2022-12-22T01:23:55.563Z,3.75
2022-12-22T01:29:26.853Z,3.42
2022-12-22T01:32:12.483Z,3.50
2022-12-22T01:34:58.961Z,4.13
2022-12-22T01:37:44.445Z,4.20
2022-12-22T01:40:39.580Z,4.40
2022-12-22T01:43:42.624Z,4.40
2022-12-22T01:46:45.935Z,3.50
2022-12-22T01:50:02.470Z,3.63
2022-12-22T01:52:54.603Z,4.28
2022-12-22T01:55:43.193Z,3.67
2022-12-22T01:58:46.484Z,4.80
2022-12-22T02:01:32.642Z,4.85
2022-12-22T02:04:19.017Z,3.85
2022-12-22T02:07:05.526Z,4.63
2022-12-22T02:10:05.787Z,4.50
2022-12-22T02:13:09.716Z,4.72
2022-12-22T02:16:12.482Z,4.78
2022-12-22T02:19:09.477Z,4.88
2022-12-22T02:22:22.807Z,5.22
2022-12-22T02:25:17.638Z,4.47
2022-12-22T02:28:06.316Z,5.13
2022-12-22T02:30:52.345Z,4.55
2022-12-22T02:33:39.515Z,4.68
2022-12-22T02:36:55.576Z,4.60
2022-12-22T02:39:52.982Z,7.50
2022-12-22T02:42:53.790Z,5.22
2022-12-22T02:45:59.007Z,4.70
2022-12-22T02:48:59.990Z,4.65
2022-12-22T02:51:49.370Z,5.30
2022-12-22T02:54:36.597Z,5.38
2022-12-22T02:57:25.600Z,4.53
2022-12-22T03:00:11.316Z,4.78
2022-12-22T03:05:42.698Z,4.82
2022-12-22T03:08:28.378Z,4.63
2022-12-22T03:11:13.961Z,4.63
2022-12-22T03:13:59.569Z,5.03
2022-12-22T03:16:45.216Z,4.53
2022-12-22T03:19:30.712Z,5.40
2022-12-22T03:22:16.380Z,5.38
2022-12-22T03:25:01.902Z,5.57
2022-12-22T03:27:29.007Z,5.50
2022-12-22T03:29:55.923Z,5.60
2022-12-22T03:32:22.940Z,5.47
2022-12-22T03:34:49.846Z,6.13
2022-12-22T03:37:16.741Z,5.13
2022-12-22T03:39:43.579Z,5.30
2022-12-22T03:42:30.673Z,5.28
2022-12-22T03:45:16.272Z,4.90
2022-12-22T03:47:43.151Z,5.40
2022-12-22T03:50:10.453Z,5.93
2022-12-22T03:52:37.476Z,5.85
2022-12-22T03:55:04.679Z,5.22
2022-12-22T03:57:31.829Z,7.22
2022-12-22T03:59:58.753Z,8.80
2022-12-22T04:02:25.810Z,10.00
2022-12-22T04:04:52.832Z,8.65
2022-12-22T04:07:19.772Z,8.13
2022-12-22T04:10:09.573Z,7.80
2022-12-22T04:12:54.736Z,8.35
2022-12-22T04:15:26.631Z,8.70
2022-12-22T04:17:53.877Z,7.82
2022-12-22T04:20:22.298Z,7.40
2022-12-22T04:22:49.888Z,7.13
2022-12-22T04:25:17.035Z,6.63
2022-12-22T04:27:44.033Z,6.80
2022-12-22T04:30:11.783Z,6.95
2022-12-22T04:32:38.798Z,7.20
2022-12-22T04:35:06.841Z,6.93
2022-12-22T04:37:34.620Z,6.97
2022-12-22T04:40:01.621Z,8.40
2022-12-22T04:42:28.624Z,9.45
2022-12-22T04:44:55.774Z,9.60
2022-12-22T04:47:22.644Z,10.23
2022-12-22T04:49:49.591Z,9.68
2022-12-22T04:52:16.484Z,9.55
2022-12-22T04:54:43.331Z,8.40
2022-12-22T04:57:10.279Z,7.60
2022-12-22T04:59:37.300Z,9.10
2022-12-22T05:02:04.363Z,7.75
2022-12-22T05:04:32.467Z,8.38
2022-12-22T05:06:59.545Z,7.10
2022-12-22T05:09:26.496Z,6.80
2022-12-22T05:11:53.389Z,6.90
2022-12-22T05:14:20.274Z,7.03
2022-12-22T05:16:47.328Z,6.80
2022-12-22T05:19:14.368Z,6.78
2022-12-22T05:21:41.209Z,6.03
2022-12-22T05:24:08.172Z,7.40
2022-12-22T05:26:35.060Z,6.07
2022-12-22T05:29:01.972Z,5.82
2022-12-22T05:31:28.904Z,6.97
2022-12-22T05:33:55.952Z,8.05
2022-12-22T05:36:22.945Z,6.90
2022-12-22T05:38:49.830Z,6.47
2022-12-22T05:41:16.756Z,6.85
2022-12-22T05:43:43.779Z,5.90
2022-12-22T05:46:11.768Z,4.90
2022-12-22T05:48:40.023Z,5.35
2022-12-22T05:51:08.839Z,5.70
2022-12-22T05:53:36.740Z,5.28
2022-12-22T05:56:04.380Z,5.07
2022-12-22T05:58:31.431Z,4.65
2022-12-22T06:00:59.094Z,5.95
2022-12-22T06:03:27.455Z,5.80
2022-12-22T06:05:55.261Z,5.78
2022-12-22T06:08:23.030Z,4.90
2022-12-22T06:10:50.182Z,4.35
2022-12-22T06:13:17.252Z,5.70
2022-12-22T06:15:44.261Z,5.15
2022-12-22T06:18:11.386Z,6.72
2022-12-22T06:20:38.259Z,6.57
2022-12-22T06:23:05.172Z,7.50
2022-12-22T06:25:32.151Z,6.22
2022-12-22T06:27:59.048Z,6.57
2022-12-22T06:30:32.905Z,6.88
2022-12-22T06:33:01.076Z,7.20
2022-12-22T06:35:28.277Z,6.38
2022-12-22T06:37:55.154Z,7.25
2022-12-22T06:40:22.003Z,6.63
2022-12-22T06:43:09.042Z,6.00
2022-12-22T06:45:38.561Z,6.57
2022-12-22T06:48:05.994Z,6.63
2022-12-22T06:50:33.257Z,5.18
2022-12-22T06:53:00.427Z,7.15
2022-12-22T06:55:27.406Z,5.40
2022-12-22T06:57:55.077Z,6.05
2022-12-22T07:00:22.474Z,5.65
2022-12-22T07:02:49.578Z,7.03
2022-12-22T07:05:17.096Z,8.05
2022-12-22T07:07:44.009Z,8.70
2022-12-22T07:10:11.983Z,8.60
2022-12-22T07:12:38.868Z,8.20
2022-12-22T07:15:06.646Z,9.45
2022-12-22T07:17:33.616Z,9.77
2022-12-22T07:20:00.494Z,9.85
2022-12-22T07:22:30.218Z,12.43
2022-12-22T07:24:58.435Z,13.40
2022-12-22T07:27:25.487Z,11.18
2022-12-22T07:29:52.370Z,8.75
2022-12-22T07:32:19.235Z,8.52
2022-12-22T07:34:46.453Z,9.52
2022-12-22T07:37:13.963Z,7.32
2022-12-22T07:39:40.963Z,7.28
2022-12-22T07:42:29.405Z,8.25
2022-12-22T07:44:56.989Z,8.25
2022-12-22T07:47:25.410Z,7.00
2022-12-22T07:50:14.378Z,6.10
2022-12-22T07:52:41.294Z,8.23
2022-12-22T07:55:09.028Z,8.20
2022-12-22T07:57:36.134Z,6.57
2022-12-22T08:00:04.535Z,8.18
2022-12-22T08:02:39.589Z,8.10
2022-12-22T08:05:08.161Z,8.95
2022-12-22T08:07:35.599Z,8.05
2022-12-22T08:10:02.683Z,10.10
2022-12-22T08:12:30.000Z,8.98
2022-12-22T08:14:57.117Z,8.90
2022-12-22T08:17:24.058Z,8.30
2022-12-22T08:19:51.017Z,7.22
2022-12-22T08:22:17.965Z,9.57
2022-12-22T08:24:44.852Z,4.57
2022-12-22T08:27:22.270Z,5.78
2022-12-22T08:29:57.301Z,4.40
2022-12-22T08:32:24.559Z,6.07
2022-12-22T08:34:52.947Z,4.65
2022-12-22T08:37:25.231Z,4.30
2022-12-22T08:39:58.922Z,3.72
2022-12-22T08:42:26.750Z,5.25
2022-12-22T08:44:53.653Z,6.38
2022-12-22T08:47:21.851Z,5.90
2022-12-22T08:49:49.884Z,7.40
2022-12-22T08:52:19.378Z,4.30
2022-12-22T08:54:47.008Z,4.10
2022-12-22T08:57:13.838Z,3.97
2022-12-22T08:59:40.751Z,5.45
2022-12-22T09:02:07.759Z,5.75
2022-12-22T09:04:35.590Z,6.63
2022-12-22T09:07:02.820Z,6.15
2022-12-22T09:09:34.484Z,6.28
2022-12-22T09:12:03.008Z,6.93
2022-12-22T09:14:30.762Z,6.32
2022-12-22T09:16:57.691Z,7.00
2022-12-22T09:19:24.725Z,6.22
2022-12-22T09:21:51.726Z,5.28
2022-12-22T09:24:18.756Z,5.55
2022-12-22T09:26:45.758Z,5.30
2022-12-22T09:29:15.732Z,4.72
2022-12-22T09:31:44.006Z,4.97
2022-12-22T09:34:17.072Z,5.20
2022-12-22T09:36:45.520Z,4.43
2022-12-22T09:39:12.597Z,3.55
2022-12-22T09:41:54.704Z,5.45
2022-12-22T09:44:21.506Z,4.32
2022-12-22T09:46:49.932Z,4.13
2022-12-22T09:49:19.166Z,3.97
2022-12-22T09:52:01.241Z,3.78
2022-12-22T09:54:30.069Z,4.30
2022-12-22T09:56:57.813Z,4.07
2022-12-22T09:59:27.761Z,3.90
2022-12-22T10:02:20.998Z,3.28
2022-12-22T10:05:04.694Z,3.53
2022-12-22T10:07:36.378Z,3.80
2022-12-22T10:10:25.545Z,3.50
2022-12-22T10:12:56.275Z,3.95
2022-12-22T10:15:24.005Z,3.60
2022-12-22T10:17:53.454Z,3.78
2022-12-22T10:20:25.536Z,3.63
2022-12-22T10:23:21.508Z,4.38
2022-12-22T10:28:51.133Z,4.68
2022-12-22T10:31:30.216Z,5.03
2022-12-22T10:34:11.347Z,4.45
2022-12-22T10:36:39.001Z,5.15
2022-12-22T10:39:09.516Z,4.80
2022-12-22T10:41:41.286Z,4.63
2022-12-22T10:44:22.739Z,4.80
2022-12-22T10:46:55.563Z,5.95
2022-12-22T10:49:30.913Z,6.30
2022-12-22T10:52:15.284Z,5.65
2022-12-22T10:54:44.898Z,5.67
2022-12-22T10:57:15.010Z,4.18
2022-12-22T10:59:55.315Z,7.25
2022-12-22T11:02:22.842Z,5.63
2022-12-22T11:04:51.242Z,5.20
2022-12-22T11:07:18.883Z,6.38
2022-12-22T11:09:45.874Z,4.57
2022-12-22T11:12:21.926Z,4.82
2022-12-22T11:15:18.528Z,4.63
2022-12-22T11:18:16.475Z,5.82
2022-12-22T11:21:05.416Z,5.88
2022-12-22T11:23:43.523Z,5.43
2022-12-22T11:26:19.521Z,4.68
2022-12-22T11:29:04.527Z,4.78
2022-12-22T11:31:37.517Z,4.00
2022-12-22T11:34:31.557Z,4.85
2022-12-22T11:37:21.656Z,4.78
2022-12-22T11:40:27.281Z,3.47
2022-12-22T11:43:21.584Z,4.90
2022-12-22T11:46:19.363Z,5.07
2022-12-22T11:49:05.083Z,3.65
2022-12-22T11:52:05.529Z,3.70
2022-12-22T11:54:50.867Z,3.28
2022-12-22T12:00:11.518Z,3.42
2022-12-22T12:03:00.025Z,2.75
2022-12-22T12:05:44.112Z,3.20
2022-12-22T12:08:29.788Z,3.67
2022-12-22T12:11:11.634Z,4.35
2022-12-22T12:14:03.546Z,4.78
2022-12-22T12:17:03.169Z,3.92
2022-12-22T12:19:51.588Z,5.10
2022-12-22T12:22:33.688Z,5.10
2022-12-22T12:25:03.499Z,4.30
2022-12-22T12:27:39.605Z,3.28
2022-12-22T12:33:07.377Z,3.67
2022-12-22T12:35:40.458Z,3.85
2022-12-22T12:38:47.850Z,3.60
2022-12-22T12:41:33.451Z,3.95
2022-12-22T12:44:03.359Z,3.90
2022-12-22T12:47:16.431Z,4.05
2022-12-22T12:49:52.139Z,3.67
2022-12-22T12:52:48.814Z,4.10
2022-12-22T12:55:55.082Z,4.35
2022-12-22T12:58:39.755Z,3.58
2022-12-22T13:01:10.774Z,3.42
2022-12-22T13:06:49.929Z,3.40
2022-12-22T13:09:49.171Z,3.47
2022-12-22T13:12:54.164Z,3.67
2022-12-22T13:15:36.480Z,2.67
2022-12-22T13:18:09.769Z,3.72
2022-12-22T13:20:38.887Z,3.70
2022-12-22T13:23:13.769Z,3.63
2022-12-22T13:25:58.998Z,4.00
2022-12-22T13:28:27.711Z,3.60
2022-12-22T13:31:06.471Z,3.88
2022-12-22T13:33:38.363Z,4.10
2022-12-22T13:36:08.819Z,4.28
2022-12-22T13:38:37.785Z,4.43
2022-12-22T13:41:26.842Z,3.88
2022-12-22T13:44:04.619Z,4.38
2022-12-22T13:46:35.319Z,3.50
2022-12-22T13:49:04.980Z,4.40
2022-12-22T13:51:36.377Z,3.78
2022-12-22T13:54:11.127Z,4.20
2022-12-22T13:56:48.429Z,4.40
2022-12-22T13:59:38.531Z,5.22
2022-12-22T14:02:08.648Z,4.50
2022-12-22T14:04:38.143Z,4.53
2022-12-22T14:07:19.370Z,3.55
2022-12-22T14:09:48.180Z,4.53
2022-12-22T14:12:18.579Z,4.30
2022-12-22T14:14:47.728Z,4.82
2022-12-22T14:17:27.085Z,4.40
2022-12-22T14:19:59.808Z,5.47
2022-12-22T14:22:36.931Z,5.03
2022-12-22T14:25:12.420Z,5.65
2022-12-22T14:27:56.652Z,5.78
2022-12-22T14:30:38.895Z,6.07
2022-12-22T14:33:28.638Z,8.30
2022-12-22T14:36:18.412Z,9.25
2022-12-22T14:38:56.912Z,10.02
2022-12-22T14:41:42.964Z,9.35
2022-12-22T14:44:18.752Z,8.30
2022-12-22T14:47:01.345Z,11.00
2022-12-22T14:49:28.368Z,9.35
2022-12-22T14:52:08.730Z,12.48
2022-12-22T14:54:35.801Z,11.32
2022-12-22T14:57:15.601Z,10.65
2022-12-22T15:00:17.850Z,10.05
2022-12-22T15:02:54.381Z,10.32
2022-12-22T15:05:26.710Z,10.32
2022-12-22T15:08:05.980Z,12.75
2022-12-22T15:10:41.454Z,9.90
2022-12-22T15:13:30.883Z,11.23
2022-12-22T15:15:57.785Z,10.77
2022-12-22T15:18:27.484Z,10.02
2022-12-22T15:20:56.597Z,10.75
2022-12-22T15:23:23.653Z,9.88
2022-12-22T15:25:50.826Z,10.93
2022-12-22T15:28:17.866Z,12.38
2022-12-22T15:30:45.024Z,11.63
2022-12-22T15:33:15.264Z,11.35
2022-12-22T15:35:42.715Z,14.40
2022-12-22T15:38:15.888Z,12.43
2022-12-22T15:40:43.617Z,13.27
2022-12-22T15:43:22.769Z,13.65
2022-12-22T15:45:58.824Z,14.13
2022-12-22T15:48:33.111Z,14.40
2022-12-22T15:51:03.505Z,14.70
2022-12-22T15:53:31.954Z,15.55
2022-12-22T15:55:58.999Z,15.73
2022-12-22T15:58:29.438Z,16.05
2022-12-22T16:00:56.464Z,15.10
2022-12-22T16:03:23.530Z,15.40
2022-12-22T16:05:52.132Z,15.40
2022-12-22T16:08:26.303Z,14.68
2022-12-22T16:10:53.258Z,16.00
2022-12-22T16:13:25.146Z,17.60
2022-12-22T16:15:52.118Z,16.65
2022-12-22T16:18:19.161Z,17.50
2022-12-22T16:20:50.196Z,17.48
2022-12-22T16:23:20.419Z,17.02
2022-12-22T16:25:48.053Z,17.42
2022-12-22T16:28:19.386Z,18.55
2022-12-22T16:30:47.292Z,20.15
2022-12-22T16:33:15.246Z,20.58
2022-12-22T16:35:42.771Z,22.13
2022-12-22T16:38:16.326Z,21.40
2022-12-22T16:40:53.020Z,21.60
2022-12-22T16:46:20.009Z,20.02
2022-12-22T16:48:59.475Z,18.55
2022-12-22T16:51:34.379Z,21.70
2022-12-22T16:54:02.532Z,23.58
2022-12-22T16:56:31.417Z,21.58
2022-12-22T16:58:58.705Z,21.35
2022-12-22T17:01:31.482Z,19.77
2022-12-22T17:04:03.728Z,21.88
2022-12-22T17:06:31.005Z,22.65
2022-12-22T17:08:58.237Z,22.42
2022-12-22T17:11:29.374Z,20.58
2022-12-22T17:14:21.543Z,20.75
2022-12-22T17:16:48.480Z,24.00
2022-12-22T17:19:15.341Z,20.80
2022-12-22T17:21:42.400Z,21.05
2022-12-22T17:24:13.090Z,18.98
2022-12-22T17:26:39.968Z,21.65
2022-12-22T17:29:07.245Z,21.45
2022-12-22T17:31:34.164Z,19.23
2022-12-22T17:34:01.265Z,18.40
2022-12-22T17:36:37.330Z,16.17
2022-12-22T17:39:04.873Z,15.75
2022-12-22T17:41:32.970Z,16.70
2022-12-22T17:44:00.110Z,17.88
2022-12-22T17:46:28.086Z,17.48
2022-12-22T17:48:55.285Z,19.73
2022-12-22T17:51:28.561Z,18.98
2022-12-22T17:53:57.992Z,18.85
2022-12-22T17:56:26.892Z,18.10
2022-12-22T17:58:54.103Z,18.08
2022-12-22T18:01:25.595Z,15.18
2022-12-22T18:03:52.757Z,11.02
2022-12-22T18:06:23.332Z,11.55
2022-12-22T18:08:52.333Z,9.20
2022-12-22T18:11:19.370Z,9.13
2022-12-22T18:13:46.433Z,10.40
2022-12-22T18:16:16.672Z,10.15
2022-12-22T18:18:43.998Z,10.07
2022-12-22T18:21:20.314Z,9.82
2022-12-22T18:23:50.670Z,10.15
2022-12-22T18:26:27.477Z,10.85
2022-12-22T18:28:55.520Z,9.93
2022-12-22T18:31:23.483Z,10.10
2022-12-22T18:33:51.804Z,10.80
2022-12-22T18:36:23.158Z,12.02
2022-12-22T18:38:50.512Z,11.82
2022-12-22T18:41:21.262Z,14.43
2022-12-22T18:43:49.133Z,15.57
2022-12-22T18:46:16.246Z,16.58
2022-12-22T18:48:43.322Z,18.25
2022-12-22T18:51:28.093Z,16.15
2022-12-22T18:53:55.117Z,18.58
2022-12-22T18:56:22.134Z,19.67
2022-12-22T18:58:49.607Z,20.17
2022-12-22T19:01:27.013Z,19.30
2022-12-22T19:03:56.785Z,24.02
2022-12-22T19:06:23.898Z,24.45
2022-12-22T19:08:51.525Z,22.02
2022-12-22T19:11:24.717Z,21.23
2022-12-22T19:13:52.686Z,22.20
2022-12-22T19:16:25.281Z,22.23
2022-12-22T19:18:52.264Z,22.98
2022-12-22T19:21:20.148Z,22.63
2022-12-22T19:23:47.126Z,24.73
2022-12-22T19:26:23.258Z,26.92
2022-12-22T19:28:54.539Z,26.83
2022-12-22T19:31:31.252Z,25.38
2022-12-22T19:34:00.817Z,24.27
2022-12-22T19:36:29.997Z,25.92
2022-12-22T19:39:04.071Z,26.00
2022-12-22T19:41:38.828Z,26.05
2022-12-22T19:44:12.591Z,26.38
2022-12-22T19:46:39.584Z,26.40
2022-12-22T19:49:06.444Z,26.50
2022-12-22T19:51:33.318Z,26.58
2022-12-22T19:54:00.272Z,24.63
2022-12-22T19:56:29.980Z,25.30
2022-12-22T19:58:59.961Z,24.80
2022-12-22T20:01:27.150Z,24.25
2022-12-22T20:03:56.352Z,22.83
2022-12-22T20:06:23.289Z,22.65
2022-12-22T20:08:50.208Z,23.70
2022-12-22T20:11:19.550Z,22.10
2022-12-22T20:13:48.079Z,22.10
2022-12-22T20:16:16.899Z,21.67
2022-12-22T20:18:46.590Z,21.17
2022-12-22T20:21:25.774Z,19.88
2022-12-22T20:23:54.618Z,18.27
2022-12-22T20:26:25.000Z,18.10
2022-12-22T20:28:53.008Z,18.80
2022-12-22T20:31:22.516Z,17.95
2022-12-22T20:33:49.665Z,17.35
2022-12-22T20:36:23.757Z,16.23
2022-12-22T20:38:52.495Z,17.00
2022-12-22T20:41:20.972Z,17.02
2022-12-22T20:43:48.881Z,17.55
2022-12-22T20:46:21.688Z,17.10
2022-12-22T20:48:56.298Z,18.42
2022-12-22T20:51:25.694Z,16.80
2022-12-22T20:53:52.927Z,16.58
2022-12-22T20:56:32.495Z,16.13
2022-12-22T20:59:01.236Z,13.77
2022-12-22T21:01:28.776Z,16.48
2022-12-22T21:03:55.918Z,15.70
2022-12-22T21:06:27.786Z,15.52
2022-12-22T21:08:56.692Z,15.88
2022-12-22T21:11:24.280Z,14.63
2022-12-22T21:13:51.369Z,14.95
2022-12-22T21:16:23.077Z,16.05
2022-12-22T21:18:51.134Z,17.17
2022-12-22T21:21:17.992Z,15.10
2022-12-22T21:23:45.182Z,16.15
2022-12-22T21:26:34.219Z,16.65
2022-12-22T21:29:08.242Z,18.63
2022-12-22T21:31:35.186Z,18.65
2022-12-22T21:34:02.070Z,18.45
2022-12-22T21:36:34.053Z,22.90
2022-12-22T21:39:04.568Z,26.35
2022-12-22T21:41:49.946Z,26.63
2022-12-22T21:44:17.005Z,25.73
2022-12-22T21:46:46.429Z,24.77
2022-12-22T21:49:21.403Z,23.33
2022-12-22T21:51:49.296Z,23.83
2022-12-22T21:54:18.111Z,21.20
2022-12-22T21:56:45.295Z,20.27
2022-12-22T21:59:12.518Z,22.38
2022-12-22T22:01:41.083Z,28.10
2022-12-22T22:04:08.350Z,25.17
2022-12-22T22:06:35.469Z,25.70
2022-12-22T22:09:05.191Z,22.63
2022-12-22T22:11:32.441Z,24.25
2022-12-22T22:13:59.693Z,23.70
2022-12-22T22:16:26.651Z,23.38
2022-12-22T22:18:53.562Z,23.45
2022-12-22T22:21:20.454Z,21.05
2022-12-22T22:23:47.356Z,24.58
2022-12-22T22:26:14.280Z,24.67
2022-12-22T22:28:41.170Z,26.08
2022-12-22T22:31:11.778Z,25.13
2022-12-22T22:33:38.760Z,28.48
2022-12-22T22:36:08.872Z,26.77
2022-12-22T22:38:36.393Z,20.92
2022-12-22T22:41:03.497Z,20.10
2022-12-22T22:43:30.430Z,22.17
2022-12-22T22:45:57.451Z,24.15
2022-12-22T22:48:24.683Z,23.33
2022-12-22T22:50:51.778Z,24.05
2022-12-22T22:53:18.702Z,23.13
2022-12-22T22:55:45.562Z,22.48
2022-12-22T22:58:12.667Z,21.83
2022-12-22T23:00:39.640Z,23.63
2022-12-22T23:03:06.769Z,22.48
2022-12-22T23:05:33.941Z,22.73
2022-12-22T23:08:00.840Z,21.67
2022-12-22T23:10:27.753Z,23.73
2022-12-22T23:12:55.064Z,22.48
2022-12-22T23:15:21.943Z,22.63
2022-12-22T23:17:51.262Z,21.73
2022-12-22T23:20:18.387Z,22.40
2022-12-22T23:22:45.288Z,24.20
2022-12-22T23:25:12.411Z,22.85
2022-12-22T23:27:39.278Z,24.05
2022-12-22T23:30:07.511Z,23.27
2022-12-22T23:32:34.487Z,20.95
2022-12-22T23:35:01.455Z,22.65
2022-12-22T23:37:28.691Z,24.77
2022-12-22T23:39:56.129Z,24.77
2022-12-22T23:42:28.831Z,22.83
2022-12-22T23:44:55.714Z,25.05
2022-12-22T23:47:22.730Z,23.70
2022-12-22T23:49:49.607Z,23.15
2022-12-22T23:52:16.453Z,23.48
2022-12-22T23:54:43.399Z,23.25
2022-12-22T23:57:10.253Z,25.35
2022-12-22T23:59:37.110Z,25.45
